sensor_id;sensor_type;location;lat;lon;timestamp;P1;durP1;ratioP1;P2;durP2;ratioP2
10260;SDS011;5175;42.606;23.388;2024-02-23T00:00:06;14.93;;;12.60;;
10260;SDS011;5175;42.606;23.388;2024-02-23T00:02:36;16.60;;;13.13;;
10260;SDS011;5175;42.606;23.388;2024-02-23T00:05:03;15.77;;;12.23;;
10260;SDS011;5175;42.606;23.388;2024-02-23T00:07:30;16.00;;;12.27;;
10260;SDS011;5175;42.606;23.388;2024-02-23T00:09:57;14.23;;;12.30;;
10260;SDS011;5175;42.606;23.388;2024-02-23T00:12:25;15.20;;;13.03;;
10260;SDS011;5175;42.606;23.388;2024-02-23T00:14:52;17.23;;;12.60;;
10260;SDS011;5175;42.606;23.388;2024-02-23T00:17:19;19.17;;;14.50;;
10260;SDS011;5175;42.606;23.388;2024-02-23T00:19:45;35.67;;;26.67;;
10260;SDS011;5175;42.606;23.388;2024-02-23T00:22:12;17.10;;;13.83;;
10260;SDS011;5175;42.606;23.388;2024-02-23T00:24:39;15.47;;;12.53;;
10260;SDS011;5175;42.606;23.388;2024-02-23T00:27:06;14.17;;;12.43;;
10260;SDS011;5175;42.606;23.388;2024-02-23T00:29:34;16.67;;;12.63;;
10260;SDS011;5175;42.606;23.388;2024-02-23T00:32:01;17.17;;;12.80;;
10260;SDS011;5175;42.606;23.388;2024-02-23T00:34:28;17.07;;;12.90;;
10260;SDS011;5175;42.606;23.388;2024-02-23T00:36:57;17.73;;;14.17;;
10260;SDS011;5175;42.606;23.388;2024-02-23T00:39:23;15.93;;;12.63;;
10260;SDS011;5175;42.606;23.388;2024-02-23T00:41:50;16.17;;;12.60;;
10260;SDS011;5175;42.606;23.388;2024-02-23T00:44:17;17.03;;;13.60;;
10260;SDS011;5175;42.606;23.388;2024-02-23T00:46:46;19.27;;;14.33;;
10260;SDS011;5175;42.606;23.388;2024-02-23T00:49:13;14.73;;;12.40;;
10260;SDS011;5175;42.606;23.388;2024-02-23T00:51:39;16.23;;;12.93;;
10260;SDS011;5175;42.606;23.388;2024-02-23T00:54:06;13.73;;;11.80;;
10260;SDS011;5175;42.606;23.388;2024-02-23T00:56:33;14.90;;;12.10;;
10260;SDS011;5175;42.606;23.388;2024-02-23T00:59:00;17.43;;;13.73;;
10260;SDS011;5175;42.606;23.388;2024-02-23T01:01:27;15.33;;;13.03;;
10260;SDS011;5175;42.606;23.388;2024-02-23T01:03:55;13.80;;;11.50;;
10260;SDS011;5175;42.606;23.388;2024-02-23T01:06:23;15.57;;;12.87;;
10260;SDS011;5175;42.606;23.388;2024-02-23T01:08:50;14.90;;;12.00;;
10260;SDS011;5175;42.606;23.388;2024-02-23T01:11:17;14.97;;;12.80;;
10260;SDS011;5175;42.606;23.388;2024-02-23T01:13:44;13.30;;;11.90;;
10260;SDS011;5175;42.606;23.388;2024-02-23T01:16:11;14.60;;;12.07;;
10260;SDS011;5175;42.606;23.388;2024-02-23T01:18:37;14.50;;;12.30;;
10260;SDS011;5175;42.606;23.388;2024-02-23T01:21:05;14.87;;;12.53;;
10260;SDS011;5175;42.606;23.388;2024-02-23T01:23:32;14.37;;;12.13;;
10260;SDS011;5175;42.606;23.388;2024-02-23T01:25:59;16.37;;;11.73;;
10260;SDS011;5175;42.606;23.388;2024-02-23T01:28:26;13.90;;;12.03;;
10260;SDS011;5175;42.606;23.388;2024-02-23T01:30:53;14.07;;;12.50;;
10260;SDS011;5175;42.606;23.388;2024-02-23T01:33:19;16.63;;;13.03;;
10260;SDS011;5175;42.606;23.388;2024-02-23T01:35:46;15.37;;;12.33;;
10260;SDS011;5175;42.606;23.388;2024-02-23T01:38:14;14.63;;;12.13;;
10260;SDS011;5175;42.606;23.388;2024-02-23T01:40:45;14.83;;;11.53;;
10260;SDS011;5175;42.606;23.388;2024-02-23T01:43:12;16.90;;;13.47;;
10260;SDS011;5175;42.606;23.388;2024-02-23T01:45:39;15.17;;;12.40;;
10260;SDS011;5175;42.606;23.388;2024-02-23T01:48:06;15.27;;;12.47;;
10260;SDS011;5175;42.606;23.388;2024-02-23T01:50:33;15.67;;;11.53;;
10260;SDS011;5175;42.606;23.388;2024-02-23T01:53:01;13.87;;;11.50;;
10260;SDS011;5175;42.606;23.388;2024-02-23T01:55:30;14.73;;;11.53;;
10260;SDS011;5175;42.606;23.388;2024-02-23T01:57:58;15.57;;;12.30;;
10260;SDS011;5175;42.606;23.388;2024-02-23T02:00:26;16.37;;;12.07;;
10260;SDS011;5175;42.606;23.388;2024-02-23T02:02:53;15.37;;;11.67;;
10260;SDS011;5175;42.606;23.388;2024-02-23T02:05:20;14.50;;;11.57;;
10260;SDS011;5175;42.606;23.388;2024-02-23T02:07:47;17.27;;;13.17;;
10260;SDS011;5175;42.606;23.388;2024-02-23T02:10:18;15.57;;;13.00;;
10260;SDS011;5175;42.606;23.388;2024-02-23T02:12:47;16.37;;;12.70;;
10260;SDS011;5175;42.606;23.388;2024-02-23T02:15:14;15.67;;;12.10;;
10260;SDS011;5175;42.606;23.388;2024-02-23T02:17:41;15.17;;;11.57;;
10260;SDS011;5175;42.606;23.388;2024-02-23T02:20:10;16.67;;;13.10;;
10260;SDS011;5175;42.606;23.388;2024-02-23T02:22:38;15.87;;;12.10;;
10260;SDS011;5175;42.606;23.388;2024-02-23T02:25:05;13.87;;;11.93;;
10260;SDS011;5175;42.606;23.388;2024-02-23T02:27:33;13.30;;;11.90;;
10260;SDS011;5175;42.606;23.388;2024-02-23T02:30:01;14.83;;;11.93;;
10260;SDS011;5175;42.606;23.388;2024-02-23T02:32:28;15.80;;;12.63;;
10260;SDS011;5175;42.606;23.388;2024-02-23T02:34:54;14.97;;;12.40;;
10260;SDS011;5175;42.606;23.388;2024-02-23T02:37:21;14.30;;;11.70;;
10260;SDS011;5175;42.606;23.388;2024-02-23T02:39:48;23.53;;;17.50;;
10260;SDS011;5175;42.606;23.388;2024-02-23T02:42:14;20.77;;;17.13;;
10260;SDS011;5175;42.606;23.388;2024-02-23T02:44:41;15.93;;;12.73;;
10260;SDS011;5175;42.606;23.388;2024-02-23T02:47:09;14.53;;;12.43;;
10260;SDS011;5175;42.606;23.388;2024-02-23T02:49:36;15.10;;;12.23;;
10260;SDS011;5175;42.606;23.388;2024-02-23T02:52:03;15.73;;;12.53;;
10260;SDS011;5175;42.606;23.388;2024-02-23T02:54:30;13.47;;;11.87;;
10260;SDS011;5175;42.606;23.388;2024-02-23T02:56:56;13.17;;;11.77;;
10260;SDS011;5175;42.606;23.388;2024-02-23T02:59:23;12.67;;;11.07;;
10260;SDS011;5175;42.606;23.388;2024-02-23T03:01:50;13.67;;;10.70;;
10260;SDS011;5175;42.606;23.388;2024-02-23T03:04:18;12.50;;;10.30;;
10260;SDS011;5175;42.606;23.388;2024-02-23T03:06:45;12.30;;;10.50;;
10260;SDS011;5175;42.606;23.388;2024-02-23T03:09:11;12.10;;;9.87;;
10260;SDS011;5175;42.606;23.388;2024-02-23T03:11:38;12.20;;;10.00;;
10260;SDS011;5175;42.606;23.388;2024-02-23T03:14:05;12.80;;;10.80;;
10260;SDS011;5175;42.606;23.388;2024-02-23T03:16:31;12.23;;;10.93;;
10260;SDS011;5175;42.606;23.388;2024-02-23T03:18:59;12.70;;;11.13;;
10260;SDS011;5175;42.606;23.388;2024-02-23T03:21:27;12.43;;;10.83;;
10260;SDS011;5175;42.606;23.388;2024-02-23T03:23:54;12.10;;;10.80;;
10260;SDS011;5175;42.606;23.388;2024-02-23T03:26:20;12.37;;;11.03;;
10260;SDS011;5175;42.606;23.388;2024-02-23T03:28:47;13.23;;;11.73;;
10260;SDS011;5175;42.606;23.388;2024-02-23T03:31:14;14.77;;;12.10;;
10260;SDS011;5175;42.606;23.388;2024-02-23T03:33:41;15.03;;;11.90;;
10260;SDS011;5175;42.606;23.388;2024-02-23T03:36:07;11.20;;;10.00;;
10260;SDS011;5175;42.606;23.388;2024-02-23T03:38:35;12.17;;;10.00;;
10260;SDS011;5175;42.606;23.388;2024-02-23T03:41:02;12.77;;;9.87;;
10260;SDS011;5175;42.606;23.388;2024-02-23T03:43:29;11.37;;;10.17;;
10260;SDS011;5175;42.606;23.388;2024-02-23T03:45:56;12.33;;;9.77;;
10260;SDS011;5175;42.606;23.388;2024-02-23T03:48:23;11.83;;;9.50;;
10260;SDS011;5175;42.606;23.388;2024-02-23T03:50:49;10.53;;;9.13;;
10260;SDS011;5175;42.606;23.388;2024-02-23T03:53:16;10.83;;;9.23;;
10260;SDS011;5175;42.606;23.388;2024-02-23T03:55:44;11.27;;;9.90;;
10260;SDS011;5175;42.606;23.388;2024-02-23T03:58:11;12.07;;;10.47;;
10260;SDS011;5175;42.606;23.388;2024-02-23T04:00:38;15.00;;;10.73;;
10260;SDS011;5175;42.606;23.388;2024-02-23T04:03:04;12.00;;;10.27;;
10260;SDS011;5175;42.606;23.388;2024-02-23T04:05:31;11.90;;;10.43;;
10260;SDS011;5175;42.606;23.388;2024-02-23T04:07:58;11.50;;;10.03;;
10260;SDS011;5175;42.606;23.388;2024-02-23T04:10:24;11.93;;;9.67;;
10260;SDS011;5175;42.606;23.388;2024-02-23T04:12:52;11.63;;;10.10;;
10260;SDS011;5175;42.606;23.388;2024-02-23T04:15:19;11.67;;;9.87;;
10260;SDS011;5175;42.606;23.388;2024-02-23T04:17:46;12.73;;;10.37;;
10260;SDS011;5175;42.606;23.388;2024-02-23T04:20:13;12.37;;;10.10;;
10260;SDS011;5175;42.606;23.388;2024-02-23T04:22:39;11.57;;;10.37;;
10260;SDS011;5175;42.606;23.388;2024-02-23T04:25:06;13.57;;;11.20;;
10260;SDS011;5175;42.606;23.388;2024-02-23T04:27:34;14.10;;;11.53;;
10260;SDS011;5175;42.606;23.388;2024-02-23T04:30:02;13.90;;;11.20;;
10260;SDS011;5175;42.606;23.388;2024-02-23T04:32:29;16.23;;;11.67;;
10260;SDS011;5175;42.606;23.388;2024-02-23T04:34:56;14.40;;;11.27;;
10260;SDS011;5175;42.606;23.388;2024-02-23T04:37:22;10.73;;;9.30;;
10260;SDS011;5175;42.606;23.388;2024-02-23T04:39:49;11.13;;;9.33;;
10260;SDS011;5175;42.606;23.388;2024-02-23T04:42:16;11.07;;;9.60;;
10260;SDS011;5175;42.606;23.388;2024-02-23T04:44:42;11.73;;;10.27;;
10260;SDS011;5175;42.606;23.388;2024-02-23T04:47:10;11.97;;;9.83;;
10260;SDS011;5175;42.606;23.388;2024-02-23T04:49:37;11.67;;;9.93;;
10260;SDS011;5175;42.606;23.388;2024-02-23T04:52:05;18.67;;;16.77;;
10260;SDS011;5175;42.606;23.388;2024-02-23T04:54:32;10.97;;;9.83;;
10260;SDS011;5175;42.606;23.388;2024-02-23T04:56:58;11.93;;;10.50;;
10260;SDS011;5175;42.606;23.388;2024-02-23T04:59:25;12.03;;;9.53;;
10260;SDS011;5175;42.606;23.388;2024-02-23T05:01:53;10.33;;;9.23;;
10260;SDS011;5175;42.606;23.388;2024-02-23T05:04:21;12.60;;;9.97;;
10260;SDS011;5175;42.606;23.388;2024-02-23T05:06:48;11.13;;;9.50;;
10260;SDS011;5175;42.606;23.388;2024-02-23T05:09:15;10.70;;;9.60;;
10260;SDS011;5175;42.606;23.388;2024-02-23T05:11:41;12.30;;;10.50;;
10260;SDS011;5175;42.606;23.388;2024-02-23T05:14:08;13.80;;;9.43;;
10260;SDS011;5175;42.606;23.388;2024-02-23T05:16:35;14.37;;;10.77;;
10260;SDS011;5175;42.606;23.388;2024-02-23T05:19:02;11.10;;;9.50;;
10260;SDS011;5175;42.606;23.388;2024-02-23T05:21:30;11.80;;;9.87;;
10260;SDS011;5175;42.606;23.388;2024-02-23T05:23:57;10.87;;;9.20;;
10260;SDS011;5175;42.606;23.388;2024-02-23T05:26:24;11.47;;;9.60;;
10260;SDS011;5175;42.606;23.388;2024-02-23T05:28:50;12.40;;;10.47;;
10260;SDS011;5175;42.606;23.388;2024-02-23T05:31:17;12.30;;;10.13;;
10260;SDS011;5175;42.606;23.388;2024-02-23T05:33:45;12.10;;;10.23;;
10260;SDS011;5175;42.606;23.388;2024-02-23T05:36:11;17.13;;;11.13;;
10260;SDS011;5175;42.606;23.388;2024-02-23T05:38:39;12.67;;;9.87;;
10260;SDS011;5175;42.606;23.388;2024-02-23T05:41:06;12.17;;;9.80;;
10260;SDS011;5175;42.606;23.388;2024-02-23T05:43:38;12.00;;;9.10;;
10260;SDS011;5175;42.606;23.388;2024-02-23T05:46:04;15.53;;;10.33;;
10260;SDS011;5175;42.606;23.388;2024-02-23T05:48:31;12.10;;;9.53;;
10260;SDS011;5175;42.606;23.388;2024-02-23T05:50:58;9.37;;;7.37;;
10260;SDS011;5175;42.606;23.388;2024-02-23T05:53:24;11.77;;;9.63;;
10260;SDS011;5175;42.606;23.388;2024-02-23T05:55:52;13.20;;;9.77;;
10260;SDS011;5175;42.606;23.388;2024-02-23T05:58:19;11.77;;;10.23;;
10260;SDS011;5175;42.606;23.388;2024-02-23T06:00:46;14.17;;;10.23;;
10260;SDS011;5175;42.606;23.388;2024-02-23T06:03:12;11.50;;;9.77;;
10260;SDS011;5175;42.606;23.388;2024-02-23T06:05:39;10.63;;;9.47;;
10260;SDS011;5175;42.606;23.388;2024-02-23T06:08:12;11.63;;;9.13;;
10260;SDS011;5175;42.606;23.388;2024-02-23T06:10:38;11.43;;;10.20;;
10260;SDS011;5175;42.606;23.388;2024-02-23T06:13:09;13.27;;;10.60;;
10260;SDS011;5175;42.606;23.388;2024-02-23T06:15:36;12.50;;;10.63;;
10260;SDS011;5175;42.606;23.388;2024-02-23T06:18:03;13.10;;;10.60;;
10260;SDS011;5175;42.606;23.388;2024-02-23T06:20:30;12.17;;;9.77;;
10260;SDS011;5175;42.606;23.388;2024-02-23T06:22:57;12.10;;;10.53;;
10260;SDS011;5175;42.606;23.388;2024-02-23T06:25:24;12.23;;;10.47;;
10260;SDS011;5175;42.606;23.388;2024-02-23T06:27:51;13.57;;;10.63;;
10260;SDS011;5175;42.606;23.388;2024-02-23T06:30:19;13.10;;;10.63;;
10260;SDS011;5175;42.606;23.388;2024-02-23T06:32:47;12.33;;;10.23;;
10260;SDS011;5175;42.606;23.388;2024-02-23T06:35:15;12.17;;;9.83;;
10260;SDS011;5175;42.606;23.388;2024-02-23T06:37:42;12.23;;;10.23;;
10260;SDS011;5175;42.606;23.388;2024-02-23T06:40:09;11.83;;;10.10;;
10260;SDS011;5175;42.606;23.388;2024-02-23T06:42:36;11.30;;;10.10;;
10260;SDS011;5175;42.606;23.388;2024-02-23T06:45:03;10.83;;;9.73;;
10260;SDS011;5175;42.606;23.388;2024-02-23T06:47:31;11.90;;;9.53;;
10260;SDS011;5175;42.606;23.388;2024-02-23T06:49:58;18.80;;;11.37;;
10260;SDS011;5175;42.606;23.388;2024-02-23T06:52:25;11.50;;;9.90;;
10260;SDS011;5175;42.606;23.388;2024-02-23T06:54:52;10.83;;;9.73;;
10260;SDS011;5175;42.606;23.388;2024-02-23T06:57:18;12.70;;;10.47;;
10260;SDS011;5175;42.606;23.388;2024-02-23T06:59:45;11.03;;;9.83;;
10260;SDS011;5175;42.606;23.388;2024-02-23T07:02:12;11.17;;;9.33;;
10260;SDS011;5175;42.606;23.388;2024-02-23T07:04:40;11.90;;;10.03;;
10260;SDS011;5175;42.606;23.388;2024-02-23T07:07:07;13.37;;;9.77;;
10260;SDS011;5175;42.606;23.388;2024-02-23T07:09:34;11.97;;;9.60;;
10260;SDS011;5175;42.606;23.388;2024-02-23T07:12:01;11.17;;;9.90;;
10260;SDS011;5175;42.606;23.388;2024-02-23T07:14:28;10.93;;;9.50;;
10260;SDS011;5175;42.606;23.388;2024-02-23T07:16:55;10.83;;;9.73;;
10260;SDS011;5175;42.606;23.388;2024-02-23T07:19:22;11.83;;;10.57;;
10260;SDS011;5175;42.606;23.388;2024-02-23T07:21:50;12.73;;;10.40;;
10260;SDS011;5175;42.606;23.388;2024-02-23T07:24:16;14.97;;;11.07;;
10260;SDS011;5175;42.606;23.388;2024-02-23T07:26:44;15.00;;;11.77;;
10260;SDS011;5175;42.606;23.388;2024-02-23T07:29:11;15.10;;;12.20;;
10260;SDS011;5175;42.606;23.388;2024-02-23T07:31:37;14.93;;;11.70;;
10260;SDS011;5175;42.606;23.388;2024-02-23T07:34:04;14.17;;;10.80;;
10260;SDS011;5175;42.606;23.388;2024-02-23T07:36:31;14.37;;;12.33;;
10260;SDS011;5175;42.606;23.388;2024-02-23T07:38:59;14.60;;;12.40;;
10260;SDS011;5175;42.606;23.388;2024-02-23T07:41:25;14.00;;;11.90;;
10260;SDS011;5175;42.606;23.388;2024-02-23T07:43:52;20.07;;;12.50;;
10260;SDS011;5175;42.606;23.388;2024-02-23T07:46:19;18.17;;;13.03;;
10260;SDS011;5175;42.606;23.388;2024-02-23T07:48:47;15.87;;;13.47;;
10260;SDS011;5175;42.606;23.388;2024-02-23T07:51:14;21.00;;;14.50;;
10260;SDS011;5175;42.606;23.388;2024-02-23T07:53:41;19.47;;;14.50;;
10260;SDS011;5175;42.606;23.388;2024-02-23T07:56:09;15.23;;;13.63;;
10260;SDS011;5175;42.606;23.388;2024-02-23T07:58:37;15.50;;;13.47;;
10260;SDS011;5175;42.606;23.388;2024-02-23T08:01:03;17.07;;;14.57;;
10260;SDS011;5175;42.606;23.388;2024-02-23T08:03:30;19.10;;;14.10;;
10260;SDS011;5175;42.606;23.388;2024-02-23T08:05:57;16.57;;;13.90;;
10260;SDS011;5175;42.606;23.388;2024-02-23T08:08:23;15.43;;;13.83;;
10260;SDS011;5175;42.606;23.388;2024-02-23T08:10:52;18.07;;;15.27;;
10260;SDS011;5175;42.606;23.388;2024-02-23T08:13:20;16.13;;;14.43;;
10260;SDS011;5175;42.606;23.388;2024-02-23T08:15:46;17.43;;;14.73;;
10260;SDS011;5175;42.606;23.388;2024-02-23T08:18:13;19.20;;;15.00;;
10260;SDS011;5175;42.606;23.388;2024-02-23T08:20:40;18.93;;;14.73;;
10260;SDS011;5175;42.606;23.388;2024-02-23T08:23:07;17.23;;;15.43;;
10260;SDS011;5175;42.606;23.388;2024-02-23T08:25:34;19.00;;;14.37;;
10260;SDS011;5175;42.606;23.388;2024-02-23T08:28:01;16.10;;;13.50;;
10260;SDS011;5175;42.606;23.388;2024-02-23T08:30:29;16.40;;;13.07;;
10260;SDS011;5175;42.606;23.388;2024-02-23T08:32:55;15.73;;;12.60;;
10260;SDS011;5175;42.606;23.388;2024-02-23T08:35:22;13.17;;;11.23;;
10260;SDS011;5175;42.606;23.388;2024-02-23T08:37:49;17.57;;;12.67;;
10260;SDS011;5175;42.606;23.388;2024-02-23T08:40:16;12.87;;;11.53;;
10260;SDS011;5175;42.606;23.388;2024-02-23T08:42:42;12.47;;;11.13;;
10260;SDS011;5175;42.606;23.388;2024-02-23T08:45:09;12.47;;;10.80;;
10260;SDS011;5175;42.606;23.388;2024-02-23T08:47:41;11.87;;;9.57;;
10260;SDS011;5175;42.606;23.388;2024-02-23T08:50:08;11.43;;;8.20;;
10260;SDS011;5175;42.606;23.388;2024-02-23T08:52:34;10.93;;;7.80;;
10260;SDS011;5175;42.606;23.388;2024-02-23T08:55:01;7.87;;;6.93;;
10260;SDS011;5175;42.606;23.388;2024-02-23T08:57:28;11.93;;;8.20;;
10260;SDS011;5175;42.606;23.388;2024-02-23T08:59:55;10.60;;;8.50;;
10260;SDS011;5175;42.606;23.388;2024-02-23T09:02:23;9.90;;;8.37;;
10260;SDS011;5175;42.606;23.388;2024-02-23T09:11:25;5.80;;;5.20;;
10260;SDS011;5175;42.606;23.388;2024-02-23T09:14:27;6.60;;;5.23;;
10260;SDS011;5175;42.606;23.388;2024-02-23T09:17:44;8.73;;;5.93;;
10260;SDS011;5175;42.606;23.388;2024-02-23T09:20:50;8.03;;;7.10;;
10260;SDS011;5175;42.606;23.388;2024-02-23T09:23:32;7.70;;;6.63;;
10260;SDS011;5175;42.606;23.388;2024-02-23T09:26:00;8.73;;;7.33;;
10260;SDS011;5175;42.606;23.388;2024-02-23T09:28:29;6.77;;;6.07;;
10260;SDS011;5175;42.606;23.388;2024-02-23T09:30:56;8.63;;;5.90;;
10260;SDS011;5175;42.606;23.388;2024-02-23T09:33:23;5.50;;;5.00;;
10260;SDS011;5175;42.606;23.388;2024-02-23T09:35:50;6.10;;;5.50;;
10260;SDS011;5175;42.606;23.388;2024-02-23T09:38:17;6.27;;;5.67;;
10260;SDS011;5175;42.606;23.388;2024-02-23T09:40:45;7.27;;;5.60;;
10260;SDS011;5175;42.606;23.388;2024-02-23T09:43:13;6.67;;;5.90;;
10260;SDS011;5175;42.606;23.388;2024-02-23T09:45:42;7.10;;;5.67;;
10260;SDS011;5175;42.606;23.388;2024-02-23T09:48:09;6.00;;;5.40;;
10260;SDS011;5175;42.606;23.388;2024-02-23T09:50:37;7.10;;;5.73;;
10260;SDS011;5175;42.606;23.388;2024-02-23T09:53:07;7.37;;;5.73;;
10260;SDS011;5175;42.606;23.388;2024-02-23T09:55:36;11.00;;;5.60;;
10260;SDS011;5175;42.606;23.388;2024-02-23T09:58:03;5.13;;;4.63;;
10260;SDS011;5175;42.606;23.388;2024-02-23T10:00:32;5.00;;;4.33;;
10260;SDS011;5175;42.606;23.388;2024-02-23T10:03:01;4.93;;;4.13;;
10260;SDS011;5175;42.606;23.388;2024-02-23T10:05:29;5.17;;;4.47;;
10260;SDS011;5175;42.606;23.388;2024-02-23T10:07:56;5.03;;;4.30;;
10260;SDS011;5175;42.606;23.388;2024-02-23T10:10:24;5.57;;;3.53;;
10260;SDS011;5175;42.606;23.388;2024-02-23T10:12:52;7.18;;;4.38;;
10260;SDS011;5175;42.606;23.388;2024-02-23T10:15:18;5.10;;;4.13;;
10260;SDS011;5175;42.606;23.388;2024-02-23T10:17:47;6.50;;;3.37;;
10260;SDS011;5175;42.606;23.388;2024-02-23T10:20:14;6.32;;;3.20;;
10260;SDS011;5175;42.606;23.388;2024-02-23T10:22:40;6.85;;;3.42;;
10260;SDS011;5175;42.606;23.388;2024-02-23T10:25:07;3.20;;;2.90;;
10260;SDS011;5175;42.606;23.388;2024-02-23T10:27:34;3.83;;;3.13;;
10260;SDS011;5175;42.606;23.388;2024-02-23T10:30:02;3.60;;;2.90;;
10260;SDS011;5175;42.606;23.388;2024-02-23T10:32:29;7.70;;;4.25;;
10260;SDS011;5175;42.606;23.388;2024-02-23T10:34:58;5.40;;;2.58;;
10260;SDS011;5175;42.606;23.388;2024-02-23T10:37:29;10.40;;;3.10;;
10260;SDS011;5175;42.606;23.388;2024-02-23T10:39:57;4.87;;;3.10;;
10260;SDS011;5175;42.606;23.388;2024-02-23T10:42:28;4.10;;;3.70;;
10260;SDS011;5175;42.606;23.388;2024-02-23T10:45:00;3.53;;;3.17;;
10260;SDS011;5175;42.606;23.388;2024-02-23T10:47:29;3.72;;;3.05;;
10260;SDS011;5175;42.606;23.388;2024-02-23T10:49:58;2.92;;;2.60;;
10260;SDS011;5175;42.606;23.388;2024-02-23T10:52:27;5.45;;;3.03;;
10260;SDS011;5175;42.606;23.388;2024-02-23T10:54:54;4.90;;;3.10;;
10260;SDS011;5175;42.606;23.388;2024-02-23T10:57:22;4.55;;;2.90;;
10260;SDS011;5175;42.606;23.388;2024-02-23T10:59:49;3.03;;;2.70;;
10260;SDS011;5175;42.606;23.388;2024-02-23T11:02:17;4.78;;;2.78;;
10260;SDS011;5175;42.606;23.388;2024-02-23T11:04:47;3.28;;;2.90;;
10260;SDS011;5175;42.606;23.388;2024-02-23T11:07:18;2.60;;;2.40;;
10260;SDS011;5175;42.606;23.388;2024-02-23T11:09:48;3.20;;;2.50;;
10260;SDS011;5175;42.606;23.388;2024-02-23T11:12:22;13.30;;;3.67;;
10260;SDS011;5175;42.606;23.388;2024-02-23T11:14:49;2.97;;;2.47;;
10260;SDS011;5175;42.606;23.388;2024-02-23T11:17:17;3.13;;;2.42;;
10260;SDS011;5175;42.606;23.388;2024-02-23T11:19:45;2.67;;;2.47;;
10260;SDS011;5175;42.606;23.388;2024-02-23T11:22:15;3.17;;;2.23;;
10260;SDS011;5175;42.606;23.388;2024-02-23T11:24:52;2.60;;;2.40;;
10260;SDS011;5175;42.606;23.388;2024-02-23T11:27:19;2.70;;;2.50;;
10260;SDS011;5175;42.606;23.388;2024-02-23T11:29:46;2.55;;;2.35;;
10260;SDS011;5175;42.606;23.388;2024-02-23T11:32:14;3.00;;;2.70;;
10260;SDS011;5175;42.606;23.388;2024-02-23T11:34:41;2.87;;;2.00;;
10260;SDS011;5175;42.606;23.388;2024-02-23T11:37:09;2.60;;;2.40;;
10260;SDS011;5175;42.606;23.388;2024-02-23T11:39:38;3.97;;;2.20;;
10260;SDS011;5175;42.606;23.388;2024-02-23T11:42:05;2.60;;;2.40;;
10260;SDS011;5175;42.606;23.388;2024-02-23T11:44:33;2.97;;;2.27;;
10260;SDS011;5175;42.606;23.388;2024-02-23T11:47:00;2.50;;;2.30;;
10260;SDS011;5175;42.606;23.388;2024-02-23T11:49:27;3.40;;;2.53;;
10260;SDS011;5175;42.606;23.388;2024-02-23T11:51:55;7.77;;;3.43;;
10260;SDS011;5175;42.606;23.388;2024-02-23T11:54:22;2.90;;;2.37;;
10260;SDS011;5175;42.606;23.388;2024-02-23T11:56:50;2.50;;;2.30;;
10260;SDS011;5175;42.606;23.388;2024-02-23T11:59:17;3.70;;;2.30;;
10260;SDS011;5175;42.606;23.388;2024-02-23T12:01:46;2.63;;;2.10;;
10260;SDS011;5175;42.606;23.388;2024-02-23T12:04:13;2.30;;;2.10;;
10260;SDS011;5175;42.606;23.388;2024-02-23T12:06:41;4.07;;;2.57;;
10260;SDS011;5175;42.606;23.388;2024-02-23T12:09:08;2.50;;;2.30;;
10260;SDS011;5175;42.606;23.388;2024-02-23T12:11:36;2.60;;;2.40;;
10260;SDS011;5175;42.606;23.388;2024-02-23T12:14:04;2.67;;;2.43;;
10260;SDS011;5175;42.606;23.388;2024-02-23T12:16:33;3.67;;;2.27;;
10260;SDS011;5175;42.606;23.388;2024-02-23T12:19:00;2.40;;;2.20;;
10260;SDS011;5175;42.606;23.388;2024-02-23T12:21:28;2.43;;;2.23;;
10260;SDS011;5175;42.606;23.388;2024-02-23T12:23:54;2.50;;;2.30;;
10260;SDS011;5175;42.606;23.388;2024-02-23T12:26:21;3.80;;;2.10;;
10260;SDS011;5175;42.606;23.388;2024-02-23T12:28:48;2.37;;;2.17;;
10260;SDS011;5175;42.606;23.388;2024-02-23T12:31:16;2.87;;;2.40;;
10260;SDS011;5175;42.606;23.388;2024-02-23T12:33:50;2.50;;;2.30;;
10260;SDS011;5175;42.606;23.388;2024-02-23T12:36:17;2.53;;;2.33;;
10260;SDS011;5175;42.606;23.388;2024-02-23T12:38:44;2.90;;;2.60;;
10260;SDS011;5175;42.606;23.388;2024-02-23T12:41:11;2.97;;;2.27;;
10260;SDS011;5175;42.606;23.388;2024-02-23T12:43:37;2.60;;;2.30;;
10260;SDS011;5175;42.606;23.388;2024-02-23T12:46:04;2.40;;;2.20;;
10260;SDS011;5175;42.606;23.388;2024-02-23T12:48:34;2.67;;;2.43;;
10260;SDS011;5175;42.606;23.388;2024-02-23T12:51:01;2.23;;;2.03;;
10260;SDS011;5175;42.606;23.388;2024-02-23T12:53:32;2.10;;;1.90;;
10260;SDS011;5175;42.606;23.388;2024-02-23T12:56:01;5.80;;;4.10;;
10260;SDS011;5175;42.606;23.388;2024-02-23T12:58:28;3.47;;;2.20;;
10260;SDS011;5175;42.606;23.388;2024-02-23T13:00:55;2.40;;;2.20;;
10260;SDS011;5175;42.606;23.388;2024-02-23T13:03:22;2.97;;;2.20;;
10260;SDS011;5175;42.606;23.388;2024-02-23T13:05:51;2.87;;;2.27;;
10260;SDS011;5175;42.606;23.388;2024-02-23T13:08:18;2.40;;;2.20;;
10260;SDS011;5175;42.606;23.388;2024-02-23T13:10:45;2.60;;;2.40;;
10260;SDS011;5175;42.606;23.388;2024-02-23T13:13:12;5.27;;;2.47;;
10260;SDS011;5175;42.606;23.388;2024-02-23T13:15:40;3.17;;;2.57;;
10260;SDS011;5175;42.606;23.388;2024-02-23T13:18:07;2.47;;;2.27;;
10260;SDS011;5175;42.606;23.388;2024-02-23T13:20:34;2.50;;;2.30;;
10260;SDS011;5175;42.606;23.388;2024-02-23T13:23:02;2.73;;;2.50;;
10260;SDS011;5175;42.606;23.388;2024-02-23T13:25:29;3.60;;;2.40;;
10260;SDS011;5175;42.606;23.388;2024-02-23T13:27:56;2.70;;;2.30;;
10260;SDS011;5175;42.606;23.388;2024-02-23T13:30:23;2.40;;;2.20;;
10260;SDS011;5175;42.606;23.388;2024-02-23T13:32:49;4.23;;;2.60;;
10260;SDS011;5175;42.606;23.388;2024-02-23T13:35:16;2.37;;;2.17;;
10260;SDS011;5175;42.606;23.388;2024-02-23T13:37:43;2.60;;;2.40;;
10260;SDS011;5175;42.606;23.388;2024-02-23T13:40:11;3.40;;;2.30;;
10260;SDS011;5175;42.606;23.388;2024-02-23T13:42:38;2.37;;;2.17;;
10260;SDS011;5175;42.606;23.388;2024-02-23T13:45:05;3.00;;;2.53;;
10260;SDS011;5175;42.606;23.388;2024-02-23T13:47:33;2.38;;;2.17;;
10260;SDS011;5175;42.606;23.388;2024-02-23T13:50:00;5.32;;;2.83;;
10260;SDS011;5175;42.606;23.388;2024-02-23T13:52:27;2.83;;;2.08;;
10260;SDS011;5175;42.606;23.388;2024-02-23T13:54:55;2.75;;;2.47;;
10260;SDS011;5175;42.606;23.388;2024-02-23T13:57:24;2.97;;;2.47;;
10260;SDS011;5175;42.606;23.388;2024-02-23T13:59:50;2.30;;;2.10;;
10260;SDS011;5175;42.606;23.388;2024-02-23T14:02:23;2.65;;;2.45;;
10260;SDS011;5175;42.606;23.388;2024-02-23T14:04:52;2.40;;;2.20;;
10260;SDS011;5175;42.606;23.388;2024-02-23T14:07:19;2.40;;;2.20;;
10260;SDS011;5175;42.606;23.388;2024-02-23T14:09:47;4.13;;;2.45;;
10260;SDS011;5175;42.606;23.388;2024-02-23T14:12:13;3.25;;;2.13;;
10260;SDS011;5175;42.606;23.388;2024-02-23T14:14:41;2.47;;;2.28;;
10260;SDS011;5175;42.606;23.388;2024-02-23T14:17:08;2.50;;;2.30;;
10260;SDS011;5175;42.606;23.388;2024-02-23T14:19:35;2.53;;;2.33;;
10260;SDS011;5175;42.606;23.388;2024-02-23T14:22:02;2.85;;;2.65;;
10260;SDS011;5175;42.606;23.388;2024-02-23T14:24:28;4.05;;;3.50;;
10260;SDS011;5175;42.606;23.388;2024-02-23T14:26:55;3.00;;;2.70;;
10260;SDS011;5175;42.606;23.388;2024-02-23T14:29:22;4.30;;;2.05;;
10260;SDS011;5175;42.606;23.388;2024-02-23T14:31:49;3.50;;;2.50;;
10260;SDS011;5175;42.606;23.388;2024-02-23T14:34:15;2.30;;;2.10;;
10260;SDS011;5175;42.606;23.388;2024-02-23T14:36:42;2.47;;;2.28;;
10260;SDS011;5175;42.606;23.388;2024-02-23T14:39:09;2.75;;;2.53;;
10260;SDS011;5175;42.606;23.388;2024-02-23T14:41:38;2.60;;;2.30;;